Observations for Trim Patrick St
| Time | AQI | Temp °C | Hum % | Pres Pa | CO μg/m³ | H₂S μg/m³ | NO μg/m³ | NO₂ μg/m³ | O₃ μg/m³ | SO₂ μg/m³ | PM1 μg/m³ | PM2.5 μg/m³ | PM10 μg/m³ |
|---|---|---|---|---|---|---|---|---|---|---|---|---|---|
| Tuesday 4 August 2026 | |||||||||||||
| 14:19 | 2 | 28.3 | 54 | 71,621 | 0 | 19.06 | 0.82 | 14.35 | 75.6 | 16.6 | 2 | 6.13 | 6.74 |
| 14:18 | 2 | 28.5 | 54 | 71,157 | 0 | 19.23 | 0.79 | 13.53 | 71.05 | 16.41 | 2 | 6.17 | 6.79 |
| 14:17 | 2 | 28.8 | 53 | 70,708 | 0 | 25.61 | 0.81 | 22.11 | 78.83 | 16.67 | 2 | 6.21 | 6.83 |
| 14:16 | 2 | 29 | 53 | 70,203 | 0 | 32.07 | 0.86 | 33.72 | 83.48 | 16.99 | 2 | 6.99 | 7.69 |
| 14:15 | 2 | 29.1 | 52 | 69,787 | 0 | 25.7 | 0.84 | 32.18 | 80.57 | 16.37 | 2 | 6.31 | 6.94 |
| 14:14 | 2 | 29.2 | 51 | 69,626 | 0 | 16.3 | 0.81 | 22.86 | 84.32 | 16.26 | 2 | 6.36 | 6.99 |
| 14:13 | 2 | 29.2 | 50 | 69,535 | 0 | 6.91 | 0.88 | 12.55 | 59.23 | 15.14 | 2 | 6.41 | 7.05 |
| 14:12 | 2 | 29.2 | 50 | 69,525 | 0 | 8.65 | 0.9 | 12.76 | 66.04 | 16.27 | 2 | 6.39 | 7.03 |
| 14:11 | 2 | 29.2 | 50 | 69,553 | 0 | 8.67 | 0.89 | 12.96 | 63.52 | 15.93 | 2 | 6.42 | 7.06 |
| 14:10 | 2 | 29.1 | 50 | 69,523 | 0 | 7.58 | 0.82 | 12.47 | 66.79 | 15.44 | 2 | 6.42 | 7.06 |
| 14:09 | 2 | 29.1 | 50 | 69,551 | 0 | 6.3 | 0.84 | 12.78 | 60.95 | 15.37 | 2 | 6.39 | 7.03 |
| 14:08 | 2 | 29.1 | 51 | 69,585 | 0 | 11.81 | 0.82 | 12.85 | 59.51 | 16.36 | 2 | 6.36 | 6.99 |
| 14:07 | 2 | 28.9 | 52 | 69,595 | 0 | 15.17 | 0.84 | 13.34 | 83.55 | 16.33 | 2 | 6.32 | 6.95 |
| 14:06 | 2 | 28.9 | 51 | 69,599 | 0 | 16.11 | 0.85 | 13.4 | 86.06 | 16.7 | 2.86 | 7.09 | 7.8 |
| 14:05 | 2 | 28.9 | 51 | 69,597 | 0 | 12.47 | 0.89 | 13.95 | 79.76 | 16.56 | 2 | 6.38 | 7.01 |
| 14:04 | 2 | 28.9 | 50 | 69,573 | 0 | 10.62 | 0.91 | 12.83 | 70.29 | 16.43 | 2 | 7.15 | 7.87 |
| 14:03 | 2 | 28.9 | 50 | 69,545 | 0 | 14.74 | 0.91 | 17.42 | 79.79 | 17.19 | 2 | 7.16 | 7.87 |
| 14:02 | 2 | 29 | 50 | 69,535 | 0 | 8.4 | 0.88 | 12.78 | 76.13 | 16.71 | 2 | 6.41 | 7.05 |
| 14:01 | 2 | 29 | 50 | 69,497 | 0 | 6.95 | 0.82 | 12.52 | 71.49 | 16 | 2 | 6.41 | 7.05 |
| 14:00 | 2 | 29.1 | 50 | 69,481 | 0 | 10.61 | 0.79 | 12.48 | 61.61 | 16.93 | 2 | 7.19 | 7.91 |